UAE777 KPVD-KSYR
Flight info
| Callsign | UAE777 |
|---|---|
| Flight time | 0h 43m |
| Altitude | 32000 |
| Route | PUT ALB/N0343F160 T608 SYR |
| Aircraft | A333/H-SDE3GHIJ2J3J5M1RVWXY/LB2D1 |
Departure
| Time | 2026-04-27 22:03 |
|---|---|
| Airport | Rhode Island T. F. Green International Airport (KPVD) |
Arrival
| Time | 2026-04-27 22:46 |
|---|---|
| Airport | Syracuse Hancock International Airport (KSYR) |
| Time | Latitude | Longitude | Altitude | Speed | Heading |
|---|---|---|---|---|---|
| 2026-04-27 21:46 | 41.72803 | -71.43253 | 75 ft | 0 kts | 262° |
| 2026-04-27 21:51 | 41.72803 | -71.43251 | 75 ft | 1 kts | 262° |
| 2026-04-27 21:51 | 41.72809 | -71.43228 | 74 ft | 3 kts | 215° |
| 2026-04-27 21:52 | 41.72838 | -71.43221 | 74 ft | 5 kts | 166° |
| 2026-04-27 21:52 | 41.72866 | -71.43243 | 75 ft | 0 kts | 122° |
| 2026-04-27 21:54 | 41.72865 | -71.43240 | 75 ft | 2 kts | 122° |
| 2026-04-27 21:55 | 41.72846 | -71.43199 | 74 ft | 6 kts | 124° |
| 2026-04-27 21:55 | 41.72803 | -71.43169 | 73 ft | 7 kts | 180° |
| 2026-04-27 21:55 | 41.72758 | -71.43193 | 74 ft | 6 kts | 210° |
| 2026-04-27 21:55 | 41.72722 | -71.43220 | 74 ft | 5 kts | 210° |
| 2026-04-27 21:56 | 41.72694 | -71.43245 | 75 ft | 4 kts | 213° |
| 2026-04-27 21:56 | 41.72655 | -71.43278 | 75 ft | 2 kts | 213° |
| 2026-04-27 21:56 | 41.72644 | -71.43288 | 75 ft | 1 kts | 213° |
| 2026-04-27 21:57 | 41.72637 | -71.43295 | 76 ft | 0 kts | 213° |
| 2026-04-27 21:57 | 41.72624 | -71.43304 | 76 ft | 8 kts | 210° |
| 2026-04-27 21:57 | 41.72548 | -71.43301 | 74 ft | 12 kts | 177° |
| 2026-04-27 21:57 | 41.72461 | -71.43335 | 73 ft | 13 kts | 210° |
| 2026-04-27 21:58 | 41.72386 | -71.43395 | 74 ft | 11 kts | 214° |
| 2026-04-27 21:58 | 41.72321 | -71.43452 | 75 ft | 10 kts | 213° |
| 2026-04-27 21:58 | 41.72261 | -71.43504 | 76 ft | 13 kts | 213° |
| 2026-04-27 21:58 | 41.72121 | -71.43622 | 76 ft | 25 kts | 213° |
| 2026-04-27 21:59 | 41.72030 | -71.43639 | 78 ft | 13 kts | 149° |
| 2026-04-27 21:59 | 41.71983 | -71.43566 | 77 ft | 10 kts | 128° |
| 2026-04-27 21:59 | 41.71919 | -71.43440 | 76 ft | 22 kts | 123° |
| 2026-04-27 21:59 | 41.71847 | -71.43321 | 76 ft | 14 kts | 154° |
| 2026-04-27 22:00 | 41.71758 | -71.43356 | 76 ft | 14 kts | 211° |
| 2026-04-27 22:00 | 41.71639 | -71.43456 | 76 ft | 23 kts | 212° |
| 2026-04-27 22:00 | 41.71496 | -71.43575 | 74 ft | 24 kts | 213° |
| 2026-04-27 22:00 | 41.71351 | -71.43700 | 74 ft | 25 kts | 212° |
| 2026-04-27 22:01 | 41.71207 | -71.43819 | 76 ft | 23 kts | 212° |
| 2026-04-27 22:01 | 41.71105 | -71.43882 | 76 ft | 3 kts | 168° |
| 2026-04-27 22:01 | 41.71104 | -71.43881 | 76 ft | 0 kts | 167° |
| 2026-04-27 22:02 | 41.71075 | -71.43858 | 76 ft | 11 kts | 136° |
| 2026-04-27 22:02 | 41.71070 | -71.43766 | 75 ft | 9 kts | 51° |
| 2026-04-27 22:02 | 41.71126 | -71.43713 | 74 ft | 10 kts | 33° |
| 2026-04-27 22:02 | 41.71235 | -71.43622 | 73 ft | 44 kts | 32° |
| 2026-04-27 22:03 | 41.71771 | -71.43172 | 77 ft | 133 kts | 32° |
| 2026-04-27 22:03 | 41.72762 | -71.42348 | 251 ft | 191 kts | 30° |
| 2026-04-27 22:03 | 41.74050 | -71.41945 | 1275 ft | 200 kts | 2° |
| 2026-04-27 22:03 | 41.75447 | -71.42251 | 2395 ft | 217 kts | 349° |
| 2026-04-27 22:04 | 41.76883 | -71.42838 | 3619 ft | 226 kts | 347° |
| 2026-04-27 22:04 | 41.78440 | -71.43514 | 3829 ft | 248 kts | 346° |
| 2026-04-27 22:04 | 41.80210 | -71.44260 | 4000 ft | 282 kts | 347° |
| 2026-04-27 22:04 | 41.82214 | -71.45071 | 3958 ft | 312 kts | 347° |
| 2026-04-27 22:05 | 41.84285 | -71.45906 | 4051 ft | 322 kts | 347° |
| 2026-04-27 22:05 | 41.86395 | -71.46762 | 5360 ft | 313 kts | 346° |
| 2026-04-27 22:05 | 41.88392 | -71.47722 | 6450 ft | 313 kts | 336° |
| 2026-04-27 22:05 | 41.90196 | -71.49477 | 7173 ft | 329 kts | 318° |
| 2026-04-27 22:06 | 41.91489 | -71.52031 | 8089 ft | 337 kts | 303° |
| 2026-04-27 22:06 | 41.92593 | -71.54787 | 8989 ft | 340 kts | 302° |
| 2026-04-27 22:06 | 41.93667 | -71.57593 | 9872 ft | 344 kts | 301° |
| 2026-04-27 22:06 | 41.94757 | -71.60464 | 10699 ft | 348 kts | 301° |
| 2026-04-27 22:07 | 41.95849 | -71.63354 | 11543 ft | 352 kts | 301° |
| 2026-04-27 22:07 | 41.96965 | -71.66312 | 12440 ft | 355 kts | 301° |
| 2026-04-27 22:07 | 41.98074 | -71.69250 | 13194 ft | 359 kts | 300° |
| 2026-04-27 22:07 | 41.99212 | -71.72274 | 13971 ft | 363 kts | 301° |
| 2026-04-27 22:08 | 42.00346 | -71.75288 | 14814 ft | 364 kts | 301° |
| 2026-04-27 22:08 | 42.01479 | -71.78305 | 15586 ft | 366 kts | 301° |
| 2026-04-27 22:08 | 42.02622 | -71.81346 | 16243 ft | 370 kts | 301° |
| 2026-04-27 22:08 | 42.03784 | -71.84442 | 16958 ft | 371 kts | 301° |
| 2026-04-27 22:09 | 42.04933 | -71.87515 | 17681 ft | 372 kts | 301° |
| 2026-04-27 22:09 | 42.06103 | -71.90636 | 18392 ft | 374 kts | 301° |
| 2026-04-27 22:09 | 42.07268 | -71.93750 | 18976 ft | 378 kts | 302° |
| 2026-04-27 22:09 | 42.08451 | -71.96914 | 19656 ft | 379 kts | 302° |
| 2026-04-27 22:10 | 42.09633 | -72.00085 | 20207 ft | 383 kts | 302° |
| 2026-04-27 22:10 | 42.10433 | -72.02229 | 20619 ft | 385 kts | 302° |
| 2026-04-27 22:10 | 42.12074 | -72.06630 | 21305 ft | 401 kts | 302° |
| 2026-04-27 22:10 | 42.13313 | -72.09970 | 21901 ft | 401 kts | 302° |
| 2026-04-27 22:11 | 42.14559 | -72.13324 | 22374 ft | 405 kts | 302° |
| 2026-04-27 22:11 | 42.15808 | -72.16696 | 22922 ft | 407 kts | 302° |
| 2026-04-27 22:11 | 42.17075 | -72.20111 | 23441 ft | 410 kts | 302° |
| 2026-04-27 22:11 | 42.18343 | -72.23537 | 24002 ft | 411 kts | 302° |
| 2026-04-27 22:12 | 42.19618 | -72.26986 | 24449 ft | 414 kts | 302° |
| 2026-04-27 22:12 | 42.20911 | -72.30488 | 24878 ft | 418 kts | 302° |
| 2026-04-27 22:12 | 42.22201 | -72.33988 | 25332 ft | 421 kts | 302° |
| 2026-04-27 22:12 | 42.23511 | -72.37550 | 25816 ft | 423 kts | 302° |
| 2026-04-27 22:13 | 42.24812 | -72.41083 | 26267 ft | 425 kts | 302° |
| 2026-04-27 22:13 | 42.26123 | -72.44654 | 26586 ft | 430 kts | 302° |
| 2026-04-27 22:13 | 42.27451 | -72.48280 | 27015 ft | 432 kts | 302° |
| 2026-04-27 22:13 | 42.28777 | -72.51891 | 27423 ft | 434 kts | 302° |
| 2026-04-27 22:14 | 42.30128 | -72.55589 | 27796 ft | 437 kts | 302° |
| 2026-04-27 22:14 | 42.31455 | -72.59220 | 28291 ft | 436 kts | 302° |
| 2026-04-27 22:14 | 42.32793 | -72.62886 | 28615 ft | 439 kts | 302° |
| 2026-04-27 22:14 | 42.34153 | -72.66614 | 28966 ft | 441 kts | 301° |
| 2026-04-27 22:15 | 42.35506 | -72.70340 | 29252 ft | 443 kts | 301° |
| 2026-04-27 22:15 | 42.36850 | -72.74033 | 29568 ft | 444 kts | 301° |
| 2026-04-27 22:15 | 42.38209 | -72.77782 | 29857 ft | 446 kts | 301° |
| 2026-04-27 22:15 | 42.39578 | -72.81553 | 30082 ft | 448 kts | 301° |
| 2026-04-27 22:16 | 42.40943 | -72.85326 | 30386 ft | 447 kts | 301° |
| 2026-04-27 22:16 | 42.42312 | -72.89112 | 30578 ft | 449 kts | 301° |
| 2026-04-27 22:16 | 42.43682 | -72.92905 | 30786 ft | 450 kts | 301° |
| 2026-04-27 22:16 | 42.45039 | -72.96674 | 31047 ft | 448 kts | 301° |
| 2026-04-27 22:17 | 42.46405 | -73.00460 | 31175 ft | 450 kts | 301° |
| 2026-04-27 22:17 | 42.47773 | -73.04266 | 31333 ft | 450 kts | 301° |
| 2026-04-27 22:17 | 42.49165 | -73.08140 | 31400 ft | 452 kts | 301° |
| 2026-04-27 22:17 | 42.50542 | -73.11977 | 31558 ft | 450 kts | 301° |
| 2026-04-27 22:18 | 42.51911 | -73.15805 | 31664 ft | 451 kts | 301° |
| 2026-04-27 22:18 | 42.53263 | -73.19581 | 31789 ft | 450 kts | 301° |
| 2026-04-27 22:18 | 42.54629 | -73.23402 | 31843 ft | 451 kts | 301° |
| 2026-04-27 22:19 | 42.57357 | -73.31059 | 31952 ft | 452 kts | 301° |
| 2026-04-27 22:19 | 42.60080 | -73.38718 | 32084 ft | 451 kts | 301° |
| 2026-04-27 22:20 | 42.62792 | -73.46377 | 32223 ft | 448 kts | 301° |
| 2026-04-27 22:20 | 42.65487 | -73.53999 | 32220 ft | 451 kts | 301° |
| 2026-04-27 22:21 | 42.68202 | -73.61695 | 32225 ft | 452 kts | 301° |
| 2026-04-27 22:21 | 42.70900 | -73.69381 | 32276 ft | 448 kts | 300° |
| 2026-04-27 22:22 | 42.73595 | -73.77066 | 32206 ft | 447 kts | 300° |
| 2026-04-27 22:22 | 42.75729 | -73.85030 | 32225 ft | 455 kts | 292° |
| 2026-04-27 22:23 | 42.77474 | -73.93294 | 32195 ft | 457 kts | 292° |
| 2026-04-27 22:23 | 42.79223 | -74.01616 | 32191 ft | 454 kts | 291° |
| 2026-04-27 22:24 | 42.80951 | -74.09862 | 32208 ft | 454 kts | 291° |
| 2026-04-27 22:24 | 42.82662 | -74.18072 | 32201 ft | 454 kts | 291° |
| 2026-04-27 22:25 | 42.84383 | -74.26353 | 32201 ft | 457 kts | 292° |
| 2026-04-27 22:25 | 42.86106 | -74.34679 | 32202 ft | 456 kts | 291° |
| 2026-04-27 22:26 | 42.87810 | -74.42950 | 32199 ft | 454 kts | 291° |
| 2026-04-27 22:26 | 42.89507 | -74.51209 | 32209 ft | 454 kts | 291° |
| 2026-04-27 22:26 | 42.90356 | -74.55358 | 32034 ft | 458 kts | 291° |
| 2026-04-27 22:27 | 42.91206 | -74.59525 | 31910 ft | 449 kts | 291° |
| 2026-04-27 22:27 | 42.92026 | -74.63558 | 31101 ft | 445 kts | 291° |
| 2026-04-27 22:27 | 42.92845 | -74.67565 | 29679 ft | 451 kts | 290° |
| 2026-04-27 22:27 | 42.93677 | -74.71677 | 28603 ft | 447 kts | 290° |
| 2026-04-27 22:28 | 42.94477 | -74.75689 | 27906 ft | 439 kts | 288° |
| 2026-04-27 22:28 | 42.94766 | -74.79871 | 26833 ft | 450 kts | 272° |
| 2026-04-27 22:28 | 42.94368 | -74.84069 | 25970 ft | 449 kts | 267° |
| 2026-04-27 22:28 | 42.93923 | -74.88255 | 25161 ft | 445 kts | 267° |
| 2026-04-27 22:29 | 42.93486 | -74.92348 | 24353 ft | 441 kts | 267° |
| 2026-04-27 22:29 | 42.93061 | -74.96485 | 23416 ft | 439 kts | 267° |
| 2026-04-27 22:29 | 42.92653 | -75.00594 | 22645 ft | 434 kts | 267° |
| 2026-04-27 22:29 | 42.92258 | -75.04592 | 22009 ft | 428 kts | 267° |
| 2026-04-27 22:30 | 42.91883 | -75.08604 | 21163 ft | 426 kts | 267° |
| 2026-04-27 22:30 | 42.91533 | -75.12561 | 20453 ft | 421 kts | 268° |
| 2026-04-27 22:30 | 42.91194 | -75.16511 | 19723 ft | 418 kts | 267° |
| 2026-04-27 22:30 | 42.90875 | -75.20409 | 19005 ft | 414 kts | 268° |
| 2026-04-27 22:31 | 42.90566 | -75.24271 | 18334 ft | 409 kts | 268° |
| 2026-04-27 22:31 | 42.90277 | -75.28050 | 17612 ft | 406 kts | 268° |
| 2026-04-27 22:31 | 42.90003 | -75.31879 | 16888 ft | 403 kts | 268° |
| 2026-04-27 22:31 | 42.89747 | -75.35622 | 16212 ft | 399 kts | 268° |
| 2026-04-27 22:32 | 42.89504 | -75.39367 | 15527 ft | 396 kts | 268° |
| 2026-04-27 22:32 | 42.89268 | -75.43066 | 14843 ft | 392 kts | 268° |
| 2026-04-27 22:32 | 42.89042 | -75.46757 | 14201 ft | 389 kts | 268° |
| 2026-04-27 22:32 | 42.88841 | -75.50404 | 13542 ft | 386 kts | 268° |
| 2026-04-27 22:33 | 42.88646 | -75.53993 | 12913 ft | 382 kts | 268° |
| 2026-04-27 22:33 | 42.88468 | -75.57560 | 12307 ft | 379 kts | 268° |
| 2026-04-27 22:33 | 42.88297 | -75.61105 | 11707 ft | 375 kts | 268° |
| 2026-04-27 22:33 | 42.88142 | -75.64648 | 11098 ft | 372 kts | 268° |
| 2026-04-27 22:34 | 42.88000 | -75.68143 | 10516 ft | 368 kts | 267° |
| 2026-04-27 22:34 | 42.87876 | -75.71577 | 9920 ft | 365 kts | 267° |
| 2026-04-27 22:34 | 42.87765 | -75.75032 | 9292 ft | 363 kts | 268° |
| 2026-04-27 22:34 | 42.87670 | -75.78431 | 8695 ft | 360 kts | 268° |
| 2026-04-27 22:35 | 42.87589 | -75.81825 | 8115 ft | 357 kts | 268° |
| 2026-04-27 22:35 | 42.87526 | -75.85149 | 7560 ft | 354 kts | 268° |
| 2026-04-27 22:35 | 42.87474 | -75.88490 | 6969 ft | 351 kts | 268° |
| 2026-04-27 22:35 | 42.87434 | -75.91767 | 6434 ft | 348 kts | 268° |
| 2026-04-27 22:36 | 42.87416 | -75.95056 | 5980 ft | 343 kts | 268° |
| 2026-04-27 22:36 | 42.87402 | -75.98205 | 6042 ft | 321 kts | 268° |
| 2026-04-27 22:36 | 42.87396 | -76.01199 | 6015 ft | 313 kts | 268° |
| 2026-04-27 22:36 | 42.87632 | -76.04103 | 5990 ft | 313 kts | 285° |
| 2026-04-27 22:37 | 42.88596 | -76.06764 | 6015 ft | 316 kts | 298° |
| 2026-04-27 22:37 | 42.89690 | -76.09358 | 6024 ft | 314 kts | 298° |
| 2026-04-27 22:37 | 42.90781 | -76.11946 | 5992 ft | 318 kts | 298° |
| 2026-04-27 22:37 | 42.91879 | -76.14537 | 6016 ft | 315 kts | 299° |
| 2026-04-27 22:38 | 42.92939 | -76.17051 | 5889 ft | 299 kts | 298° |
| 2026-04-27 22:38 | 42.93959 | -76.19453 | 5291 ft | 293 kts | 298° |
| 2026-04-27 22:38 | 42.94978 | -76.21876 | 4941 ft | 292 kts | 298° |
| 2026-04-27 22:38 | 42.95978 | -76.24246 | 4630 ft | 290 kts | 298° |
| 2026-04-27 22:39 | 42.96986 | -76.26631 | 4317 ft | 288 kts | 298° |
| 2026-04-27 22:39 | 42.97972 | -76.28966 | 3870 ft | 283 kts | 299° |
| 2026-04-27 22:39 | 42.98946 | -76.31287 | 3419 ft | 280 kts | 299° |
| 2026-04-27 22:39 | 42.99930 | -76.33594 | 3158 ft | 276 kts | 302° |
| 2026-04-27 22:40 | 43.01129 | -76.35500 | 3180 ft | 262 kts | 313° |
| 2026-04-27 22:40 | 43.02366 | -76.37274 | 3154 ft | 252 kts | 313° |
| 2026-04-27 22:40 | 43.03629 | -76.38838 | 3103 ft | 241 kts | 331° |
| 2026-04-27 22:40 | 43.05195 | -76.39399 | 3081 ft | 226 kts | 6° |
| 2026-04-27 22:41 | 43.06666 | -76.38983 | 3050 ft | 209 kts | 18° |
| 2026-04-27 22:41 | 43.08044 | -76.38465 | 3032 ft | 197 kts | 19° |
| 2026-04-27 22:41 | 43.09208 | -76.37566 | 2989 ft | 190 kts | 43° |
| 2026-04-27 22:41 | 43.10028 | -76.36201 | 2983 ft | 185 kts | 76° |
| 2026-04-27 22:42 | 43.10118 | -76.34468 | 3057 ft | 183 kts | 94° |
| 2026-04-27 22:42 | 43.10149 | -76.32719 | 3001 ft | 182 kts | 91° |
| 2026-04-27 22:42 | 43.10199 | -76.31000 | 2984 ft | 183 kts | 90° |
| 2026-04-27 22:42 | 43.10257 | -76.29240 | 2746 ft | 185 kts | 90° |
| 2026-04-27 22:43 | 43.10319 | -76.27495 | 2511 ft | 179 kts | 90° |
| 2026-04-27 22:43 | 43.10373 | -76.25807 | 2289 ft | 178 kts | 90° |
| 2026-04-27 22:43 | 43.10430 | -76.24195 | 2095 ft | 160 kts | 90° |
| 2026-04-27 22:43 | 43.10480 | -76.22764 | 1858 ft | 146 kts | 90° |
| 2026-04-27 22:44 | 43.10524 | -76.21413 | 1668 ft | 142 kts | 90° |
| 2026-04-27 22:44 | 43.10569 | -76.20064 | 1490 ft | 141 kts | 90° |
| 2026-04-27 22:44 | 43.10614 | -76.18720 | 1309 ft | 142 kts | 89° |
| 2026-04-27 22:44 | 43.10661 | -76.17391 | 1126 ft | 141 kts | 89° |
| 2026-04-27 22:45 | 43.10704 | -76.16032 | 939 ft | 143 kts | 89° |
| 2026-04-27 22:45 | 43.10750 | -76.14683 | 753 ft | 143 kts | 88° |
| 2026-04-27 22:45 | 43.10796 | -76.13335 | 564 ft | 143 kts | 88° |
| 2026-04-27 22:45 | 43.10844 | -76.11977 | 439 ft | 139 kts | 89° |
| 2026-04-27 22:46 | 43.10878 | -76.10860 | 425 ft | 76 kts | 88° |
| 2026-04-27 22:46 | 43.10898 | -76.10212 | 417 ft | 69 kts | 88° |
| 2026-04-27 22:46 | 43.10925 | -76.09747 | 413 ft | 18 kts | 59° |
| 2026-04-27 22:46 | 43.10934 | -76.09777 | 413 ft | 0 kts | 36° |
| 2026-04-27 22:47 | 43.10928 | -76.09849 | 415 ft | 3 kts | 3° |
| 2026-04-27 22:47 | 43.10962 | -76.09877 | 416 ft | 7 kts | 317° |
| 2026-04-27 22:47 | 43.11008 | -76.09942 | 417 ft | 11 kts | 313° |
| 2026-04-27 22:47 | 43.11071 | -76.10032 | 418 ft | 14 kts | 314° |
| 2026-04-27 22:48 | 43.11017 | -76.09955 | 417 ft | 0 kts | 313° |
| 2026-04-27 22:48 | 43.11028 | -76.10055 | 418 ft | 18 kts | 267° |
| 2026-04-27 22:48 | 43.11020 | -76.10309 | 421 ft | 31 kts | 267° |
| 2026-04-27 22:48 | 43.11010 | -76.10599 | 423 ft | 29 kts | 268° |
| 2026-04-27 22:49 | 43.11010 | -76.10744 | 426 ft | 7 kts | 285° |
| 2026-04-27 22:49 | 43.11037 | -76.10795 | 427 ft | 5 kts | 328° |
| 2026-04-27 22:49 | 43.11072 | -76.10813 | 427 ft | 5 kts | 346° |
| 2026-04-27 22:49 | 43.11140 | -76.10822 | 427 ft | 9 kts | 358° |
| 2026-04-27 22:50 | 43.11176 | -76.10821 | 427 ft | 0 kts | 1° |
| 2026-04-27 22:50 | 43.11197 | -76.10820 | 427 ft | 7 kts | 1° |
| 2026-04-27 22:50 | 43.11233 | -76.10819 | 427 ft | 0 kts | 357° |
| 2026-04-27 22:50 | 43.11234 | -76.10820 | 427 ft | 0 kts | 350° |
| 2026-04-27 22:51 | 43.11244 | -76.10825 | 427 ft | 1 kts | 341° |
| 2026-04-27 22:51 | 43.11249 | -76.10829 | 427 ft | 0 kts | 326° |
| 2026-04-27 22:51 | 43.11261 | -76.10845 | 427 ft | 3 kts | 303° |
| 2026-04-27 22:51 | 43.11269 | -76.10868 | 427 ft | 0 kts | 297° |